EFOUEFKI

Guest
Details From EFOU - Oulu
To EFKI - Kajaani
Flight Number -
Tags generated
Created
Modified
Stats Distance 72 nm / 133 km
Max Altitude 9,500 ft / 2,896 m
Waypoints 4
Social Downloads 0
Likes 0
Share VATSIM

Download

Looking for another format? Having issues loading an existing format? Contact us
Advertisement - Login to hide

Notes

Basic altitude profile: - Ascent Rate: 2500ft/min - Ascent Speed: 250kts - Cruise Altitude: 35000ft - Cruise Speed: 420kts - Descent Rate: 1500ft/min - Descent Speed: 250kts Options: - Use NATs: yes - Use PACOTS: yes - Use low airways: yes - Use high airways: yes

Route

EFOU SOPRI Y78 TIGLU EFKI

ID Type Via Altitude Latitude Longitude Leg Dist Tot Dist Heading (true) Name
O EFOU APT - 0 ft / 0 m 64.93006˚ 25.35456˚ - 0 nm - Oulu
SOPRI FIX - 9,100 ft / 2,774 m 64.67056˚ 26.31194˚ 29 nm 29 nm 122° / 123° -
TIGLU FIX Y78 (AWY-LO) 9,500 ft / 2,896 m 64.47250˚ 27.00750˚ 21 nm 50 nm 123° / 124° -
O EFKI APT - 0 ft / 0 m 64.28547˚ 27.69242˚ 21 nm 71 nm 122° / 123° Kajaani

Altitude Profile

Advertisement - Login to hide

EFOU

Details ICAO EFOU (OUL)
Name Oulu
Region Finland
Timezone Europe/Helsinki (UTC+2.0)
Stats Elevation 47 ft / 14 m (AMSL)
Location 64.930059° 25.354560°
Runways 1
Magnetic Variation 10.661° E

METAR

EFOU 142320Z AUTO 14011KT 9999 OVC027/// M02/M04 Q0996

Decode

TAF

TAF EFOU 142024Z 1421/1521 15009KT 9999 SCT015 PROB40 1421/1424 BKN013 TEMPO 1500/1512 BKN010 TEMPO 1512/1521 7000 -SN

Decode

Departure Runways

ID Width Length Bearing (true) Bearing (mag) Surface Threshold Offset Overrun Length
12 197 ft / 60 m 8,180 ft / 2,493 m 121.01° 110.35° Asphalt 0 ft / 0 m 200 ft / 61 m
30 197 ft / 60 m 8,180 ft / 2,493 m 301.05° 290.39° Asphalt 0 ft / 0 m 200 ft / 61 m

EFKI

Details ICAO EFKI (KAJ)
Name Kajaani
Region Finland
Timezone Europe/Helsinki (UTC+2.0)
Stats Elevation 483 ft / 147 m (AMSL)
Location 64.285471° 27.692417°
Runways 1
Magnetic Variation 11.474° E

METAR

EFKI 142320Z AUTO 14007KT 110V180 9999 OVC011 M03/M05 Q0998

Decode

TAF

Not found

Destination Runways

ID Width Length Bearing (true) Bearing (mag) Surface Threshold Offset Overrun Length
07 157 ft / 48 m 8,172 ft / 2,491 m 79.57° 68.10° Asphalt 0 ft / 0 m 0 ft / 0 m
25 157 ft / 48 m 8,172 ft / 2,491 m 259.61° 248.14° Asphalt 0 ft / 0 m 0 ft / 0 m

Approach Navaids

Runway Type Ident Frequency Range Bearing (true) Bearing (mag) Slope Elevation
07 Localiser KI 109.90 MHz 18 nm / 33 km 79.62° 68.15° - 483 ft / 147 m (AMSL)
07 Glidescope KI 109.90 MHz 10 nm / 19 km 79.59° 68.11° 3.00° 483 ft / 147 m (AMSL)
07 DME KI 109.90 MHz 18 nm / 33 km - - - 500 ft / 152 m (AMSL)